createdAt,value
2019-03-25T00:00:00.388Z,56.70
2019-03-25T00:01:03.748Z,56.50
2019-03-25T00:02:07.301Z,56.50
2019-03-25T00:03:10.875Z,56.40
2019-03-25T00:04:14.191Z,56.50
2019-03-25T00:05:19.191Z,56.80
2019-03-25T00:06:22.468Z,56.70
2019-03-25T00:07:25.767Z,56.70
2019-03-25T00:08:29.007Z,56.50
2019-03-25T00:09:32.239Z,56.50
2019-03-25T00:10:35.513Z,56.50
2019-03-25T00:11:39.424Z,55.70
2019-03-25T00:12:42.801Z,56.40
2019-03-25T00:13:46.866Z,56.30
2019-03-25T00:14:51.068Z,56.60
2019-03-25T00:15:56.407Z,56.70
2019-03-25T00:16:59.339Z,56.70
2019-03-25T00:18:02.653Z,56.70
2019-03-25T00:19:06.076Z,56.70
2019-03-25T00:20:09.659Z,58.10
2019-03-25T00:21:12.902Z,56.60
2019-03-25T00:22:16.432Z,56.50
2019-03-25T00:23:19.696Z,56.50
2019-03-25T00:24:24.912Z,56.50
2019-03-25T00:25:28.160Z,56.30
2019-03-25T00:26:31.845Z,56.50
2019-03-25T00:27:35.211Z,56.50
2019-03-25T00:28:38.516Z,56.60
2019-03-25T00:29:41.894Z,56.50
2019-03-25T00:30:45.187Z,56.50
2019-03-25T00:31:48.461Z,56.40
2019-03-25T00:32:51.769Z,56.50
2019-03-25T00:33:55.421Z,56.40
2019-03-25T00:34:58.651Z,56.40
2019-03-25T00:36:02.023Z,56.30
2019-03-25T00:37:08.038Z,56.40
2019-03-25T00:38:11.344Z,56.30
2019-03-25T00:39:14.579Z,56.20
2019-03-25T00:40:18.680Z,56.30
2019-03-25T00:41:21.911Z,56.30
2019-03-25T00:42:25.730Z,56.20
2019-03-25T00:43:29.299Z,57.50
2019-03-25T00:44:32.724Z,56.20
2019-03-25T00:45:36.253Z,56.30
2019-03-25T00:46:39.551Z,56.40
2019-03-25T00:47:42.795Z,56.40
2019-03-25T00:48:46.042Z,56.40
2019-03-25T00:49:50.178Z,56.40
2019-03-25T00:50:54.388Z,56.50
2019-03-25T00:51:57.699Z,57.70
2019-03-25T00:53:00.964Z,56.50
2019-03-25T00:54:06.031Z,56.50
2019-03-25T00:55:09.283Z,56.50
2019-03-25T00:56:12.516Z,55.50
2019-03-25T00:57:15.807Z,56.50
2019-03-25T00:58:21.911Z,56.60
2019-03-25T00:59:25.322Z,56.50
2019-03-25T01:00:31.529Z,56.50
2019-03-25T01:01:34.927Z,56.50
2019-03-25T01:02:38.237Z,56.50
2019-03-25T01:03:41.475Z,56.50
2019-03-25T01:04:44.711Z,56.50
2019-03-25T01:05:47.939Z,56.40
2019-03-25T01:06:51.180Z,56.60
2019-03-25T01:07:54.591Z,56.50
2019-03-25T01:08:57.827Z,56.50
2019-03-25T01:10:01.136Z,56.50
2019-03-25T01:11:04.689Z,56.30
2019-03-25T01:12:08.067Z,56.50
2019-03-25T01:13:11.317Z,56.60
2019-03-25T01:14:14.716Z,56.40
2019-03-25T01:15:18.027Z,56.20
2019-03-25T01:16:21.396Z,56.20
2019-03-25T01:17:25.007Z,56.20
2019-03-25T01:18:28.286Z,56.30
2019-03-25T01:19:34.167Z,56.20
2019-03-25T01:20:37.455Z,56.40
2019-03-25T01:21:40.804Z,56.60
2019-03-25T01:22:44.079Z,56.40
2019-03-25T01:23:47.323Z,56.40
2019-03-25T01:25:00.942Z,56.50
2019-03-25T01:25:55.485Z,56.40
2019-03-25T01:26:58.711Z,56.40
2019-03-25T01:28:01.951Z,56.30
2019-03-25T01:29:05.191Z,56.30
2019-03-25T01:30:09.313Z,56.50
2019-03-25T01:31:18.364Z,56.50
2019-03-25T01:32:22.167Z,56.40
2019-03-25T01:33:25.421Z,56.50
2019-03-25T01:34:28.727Z,56.50
2019-03-25T01:35:31.959Z,56.30
2019-03-25T01:36:35.204Z,56.40
2019-03-25T01:37:38.483Z,56.30
2019-03-25T01:38:41.760Z,56.20
2019-03-25T01:39:47.795Z,56.40
2019-03-25T01:40:51.372Z,56.30
2019-03-25T01:41:54.604Z,56.30
2019-03-25T01:42:57.916Z,56.30
2019-03-25T01:44:01.833Z,56.30
2019-03-25T01:45:05.964Z,56.20
2019-03-25T01:46:09.532Z,56.40
2019-03-25T01:47:12.773Z,56.20
2019-03-25T01:48:16.077Z,56.20
2019-03-25T01:49:21.087Z,56.30
2019-03-25T01:50:24.743Z,56.20
2019-03-25T01:51:30.891Z,56.20
2019-03-25T01:52:34.267Z,56.10
2019-03-25T01:53:37.508Z,56.20
2019-03-25T01:54:40.844Z,56.30
2019-03-25T01:55:44.220Z,56.30
2019-03-25T01:56:47.465Z,56.30
2019-03-25T01:57:52.540Z,56.40
2019-03-25T01:58:56.229Z,56.20
2019-03-25T02:00:02.259Z,56.40
2019-03-25T02:01:05.543Z,56.30
2019-03-25T02:02:08.780Z,56.20
2019-03-25T02:03:12.923Z,56.20
2019-03-25T02:04:16.166Z,56.30
2019-03-25T02:05:19.419Z,56.20
2019-03-25T02:06:22.703Z,56.20
2019-03-25T02:07:25.975Z,56.20
2019-03-25T02:08:31.840Z,56.30
2019-03-25T02:09:35.163Z,56.20
2019-03-25T02:10:38.671Z,56.40
2019-03-25T02:11:41.903Z,56.40
2019-03-25T02:12:45.239Z,56.40
2019-03-25T02:13:48.603Z,56.60
2019-03-25T02:14:51.839Z,56.40
2019-03-25T02:15:55.076Z,56.30
2019-03-25T02:16:58.312Z,56.50
2019-03-25T02:18:01.608Z,56.40
2019-03-25T02:19:07.635Z,56.50
2019-03-25T02:20:10.936Z,56.40
2019-03-25T02:21:14.171Z,56.20
2019-03-25T02:22:17.417Z,56.30
2019-03-25T02:23:20.967Z,56.20
2019-03-25T02:24:24.307Z,56.30
2019-03-25T02:25:27.540Z,56.30
2019-03-25T02:26:30.803Z,56.30
2019-03-25T02:27:35.016Z,56.40
2019-03-25T02:28:39.182Z,57.50
2019-03-25T02:29:42.422Z,56.30
2019-03-25T02:30:46.021Z,56.20
2019-03-25T02:31:51.799Z,56.20
2019-03-25T02:32:55.663Z,56.20
2019-03-25T02:33:58.896Z,56.30
2019-03-25T02:35:02.534Z,56.20
2019-03-25T02:36:05.896Z,56.20
2019-03-25T02:37:09.155Z,56.30
2019-03-25T02:38:12.455Z,56.20
2019-03-25T02:39:15.764Z,56.30
2019-03-25T02:40:19.000Z,56.40
2019-03-25T02:41:22.359Z,56.40
2019-03-25T02:42:25.596Z,56.30
2019-03-25T02:43:28.871Z,56.40
2019-03-25T02:44:32.114Z,56.30
2019-03-25T02:45:35.451Z,56.40
2019-03-25T02:46:40.456Z,56.50
2019-03-25T02:47:43.862Z,56.50
2019-03-25T02:48:47.340Z,56.50
2019-03-25T02:49:50.920Z,56.40
2019-03-25T02:50:54.156Z,56.30
2019-03-25T02:51:57.737Z,56.40
2019-03-25T02:53:03.717Z,56.50
2019-03-25T02:54:07.119Z,56.50
2019-03-25T02:55:10.455Z,56.40
2019-03-25T02:56:13.713Z,56.60
2019-03-25T02:57:17.293Z,56.50
2019-03-25T02:58:20.595Z,56.30
2019-03-25T02:59:24.285Z,56.30
2019-03-25T03:00:34.796Z,57.70
2019-03-25T03:01:38.024Z,56.50
2019-03-25T03:02:41.332Z,56.50
2019-03-25T03:03:44.688Z,57.70
2019-03-25T03:04:47.995Z,56.50
2019-03-25T03:05:51.345Z,56.40
2019-03-25T03:06:57.300Z,56.50
2019-03-25T03:08:00.639Z,56.50
2019-03-25T03:09:07.159Z,56.50
2019-03-25T03:10:13.127Z,56.40
2019-03-25T03:11:16.524Z,56.30
2019-03-25T03:12:22.339Z,56.40
2019-03-25T03:13:25.604Z,56.30
2019-03-25T03:14:28.899Z,56.40
2019-03-25T03:15:32.372Z,56.20
2019-03-25T03:16:38.521Z,56.20
2019-03-25T03:17:42.216Z,56.20
2019-03-25T03:18:46.493Z,56.20
2019-03-25T03:19:50.004Z,56.40
2019-03-25T03:20:53.245Z,56.30
2019-03-25T03:21:56.647Z,56.30
2019-03-25T03:22:59.933Z,56.40
2019-03-25T03:24:03.218Z,56.50
2019-03-25T03:25:09.192Z,56.60
2019-03-25T03:26:14.522Z,56.70
2019-03-25T03:27:17.839Z,56.70
2019-03-25T03:28:23.995Z,56.50
2019-03-25T03:29:27.304Z,56.40
2019-03-25T03:30:32.999Z,56.30
2019-03-25T03:31:36.365Z,56.30
2019-03-25T03:32:39.700Z,56.40
2019-03-25T03:33:43.093Z,56.30
2019-03-25T03:34:46.414Z,56.30
2019-03-25T03:35:49.713Z,56.20
2019-03-25T03:36:52.947Z,56.40
2019-03-25T03:37:56.256Z,56.20
2019-03-25T03:38:59.568Z,56.30
2019-03-25T03:40:04.880Z,56.30
2019-03-25T03:41:11.063Z,56.30
2019-03-25T03:42:14.379Z,56.20
2019-03-25T03:43:17.608Z,56.20
2019-03-25T03:44:21.787Z,56.30
2019-03-25T03:45:25.200Z,56.30
2019-03-25T03:46:28.624Z,56.20
2019-03-25T03:47:31.925Z,56.30
2019-03-25T03:48:35.264Z,56.20
2019-03-25T03:49:39.429Z,56.20
2019-03-25T03:50:42.742Z,56.30
2019-03-25T03:51:45.979Z,56.40
2019-03-25T03:52:49.235Z,56.40
2019-03-25T03:53:52.923Z,56.20
2019-03-25T03:54:56.157Z,56.20
2019-03-25T03:56:12.155Z,56.20
2019-03-25T03:57:04.804Z,56.40
2019-03-25T03:58:08.116Z,57.60
2019-03-25T03:59:11.672Z,56.20
2019-03-25T04:00:23.777Z,56.30
2019-03-25T04:01:27.157Z,56.30
2019-03-25T04:02:30.405Z,56.30
2019-03-25T04:03:35.406Z,56.30
2019-03-25T04:04:38.740Z,56.20
2019-03-25T04:05:43.833Z,56.20
2019-03-25T04:06:47.377Z,56.00
2019-03-25T04:07:53.324Z,56.10
2019-03-25T04:08:56.568Z,56.10
2019-03-25T04:09:59.879Z,57.50
2019-03-25T04:11:03.182Z,56.40
2019-03-25T04:12:07.596Z,56.30
2019-03-25T04:13:10.960Z,56.30
2019-03-25T04:14:15.972Z,56.30
2019-03-25T04:15:29.619Z,56.30
2019-03-25T04:16:32.933Z,56.20
2019-03-25T04:17:36.172Z,56.40
2019-03-25T04:18:39.472Z,56.50
2019-03-25T04:19:42.709Z,56.40
2019-03-25T04:20:46.047Z,57.70
2019-03-25T04:21:52.237Z,57.60
2019-03-25T04:22:55.540Z,56.30
2019-03-25T04:23:58.872Z,56.50
2019-03-25T04:25:02.190Z,56.30
2019-03-25T04:26:05.507Z,56.30
2019-03-25T04:27:08.844Z,56.50
2019-03-25T04:28:12.147Z,56.30
2019-03-25T04:29:15.382Z,56.30
2019-03-25T04:30:18.615Z,56.40
2019-03-25T04:31:22.065Z,57.50
2019-03-25T04:32:25.300Z,56.40
2019-03-25T04:33:28.696Z,56.40
2019-03-25T04:34:32.003Z,56.30
2019-03-25T04:35:35.315Z,56.40
2019-03-25T04:36:38.561Z,56.50
2019-03-25T04:37:41.871Z,56.50
2019-03-25T04:38:45.184Z,56.50
2019-03-25T04:39:48.495Z,56.50
2019-03-25T04:40:51.798Z,56.70
2019-03-25T04:41:55.121Z,56.50
2019-03-25T04:42:58.351Z,56.50
2019-03-25T04:44:01.941Z,56.40
2019-03-25T04:45:06.187Z,56.50
2019-03-25T04:46:09.415Z,57.70
2019-03-25T04:47:12.728Z,56.60
2019-03-25T04:48:16.316Z,56.30
2019-03-25T04:49:19.548Z,56.30
2019-03-25T04:50:22.816Z,56.40
2019-03-25T04:51:27.899Z,56.30
2019-03-25T04:52:31.175Z,56.50
2019-03-25T04:53:36.423Z,56.50
2019-03-25T04:54:40.248Z,56.50
2019-03-25T04:55:45.556Z,56.50
2019-03-25T04:56:48.820Z,57.70
2019-03-25T04:57:55.968Z,56.20
2019-03-25T04:58:59.199Z,56.50
2019-03-25T05:00:02.497Z,56.40
2019-03-25T05:01:05.808Z,56.50
2019-03-25T05:02:09.131Z,56.50
2019-03-25T05:03:13.127Z,56.50
2019-03-25T05:04:16.359Z,56.40
2019-03-25T05:05:19.620Z,56.30
2019-03-25T05:06:22.947Z,56.50
2019-03-25T05:07:26.277Z,56.40
2019-03-25T05:08:32.362Z,56.50
2019-03-25T05:09:35.775Z,56.50
2019-03-25T05:10:39.007Z,56.30
2019-03-25T05:11:42.251Z,56.30
2019-03-25T05:12:45.500Z,56.40
2019-03-25T05:13:48.732Z,56.30
2019-03-25T05:14:52.013Z,56.50
2019-03-25T05:15:55.326Z,56.40
2019-03-25T05:16:58.579Z,56.50
2019-03-25T05:18:01.900Z,56.50
2019-03-25T05:19:05.131Z,56.50
2019-03-25T05:20:09.187Z,56.50
2019-03-25T05:21:15.299Z,56.40
2019-03-25T05:22:18.892Z,56.60
2019-03-25T05:23:22.123Z,56.40
2019-03-25T05:24:25.374Z,56.40
2019-03-25T05:25:29.639Z,56.50
2019-03-25T05:26:33.172Z,56.60
2019-03-25T05:27:36.417Z,56.50
2019-03-25T05:28:39.924Z,56.50
2019-03-25T05:29:43.515Z,56.50
2019-03-25T05:30:47.720Z,56.30
2019-03-25T05:31:54.000Z,56.40
2019-03-25T05:32:57.311Z,56.40
2019-03-25T05:34:00.638Z,56.40
2019-03-25T05:35:05.721Z,56.40
2019-03-25T05:36:09.087Z,56.40
2019-03-25T05:37:12.320Z,56.40
2019-03-25T05:38:15.831Z,56.50
2019-03-25T05:39:19.422Z,56.30
2019-03-25T05:40:23.008Z,56.30
2019-03-25T05:41:26.239Z,56.40
2019-03-25T05:42:30.471Z,56.40
2019-03-25T05:43:33.715Z,56.40
2019-03-25T05:44:36.956Z,56.30
2019-03-25T05:45:40.295Z,56.50
2019-03-25T05:46:43.532Z,56.30
2019-03-25T05:47:46.791Z,56.20
2019-03-25T05:48:50.119Z,56.30
2019-03-25T05:49:53.395Z,56.30
2019-03-25T05:50:56.635Z,56.20
2019-03-25T05:51:59.895Z,56.20
2019-03-25T05:53:05.793Z,56.40
2019-03-25T05:54:09.023Z,56.50
2019-03-25T05:55:12.333Z,56.30
2019-03-25T05:56:15.703Z,56.40
2019-03-25T05:57:22.099Z,56.70
2019-03-25T05:58:25.348Z,54.00
2019-03-25T05:59:28.588Z,46.60
2019-03-25T06:00:31.871Z,42.60
2019-03-25T06:01:36.935Z,42.60
2019-03-25T06:02:40.211Z,45.70
2019-03-25T06:03:43.620Z,49.00
2019-03-25T06:04:47.009Z,49.40
2019-03-25T06:05:52.015Z,49.30
2019-03-25T06:06:56.155Z,48.80
2019-03-25T06:07:59.411Z,48.40
2019-03-25T06:09:02.941Z,48.30
2019-03-25T06:10:06.524Z,48.40
2019-03-25T06:11:09.870Z,48.10
2019-03-25T06:12:13.171Z,48.20
2019-03-25T06:13:16.415Z,48.90
2019-03-25T06:14:19.727Z,48.70
2019-03-25T06:15:23.249Z,48.90
2019-03-25T06:16:26.644Z,48.90
2019-03-25T06:17:29.952Z,48.90
2019-03-25T06:18:33.200Z,48.90
2019-03-25T06:19:36.435Z,49.20
2019-03-25T06:20:39.690Z,49.10
2019-03-25T06:21:45.983Z,49.20
2019-03-25T06:22:49.284Z,49.30
2019-03-25T06:23:56.351Z,49.70
2019-03-25T06:24:59.688Z,49.60
2019-03-25T06:26:02.987Z,49.90
2019-03-25T06:27:14.035Z,50.00
2019-03-25T06:28:12.386Z,50.10
2019-03-25T06:29:21.443Z,50.20
2019-03-25T06:30:25.011Z,50.20
2019-03-25T06:31:28.680Z,50.50
2019-03-25T06:32:31.963Z,50.50
2019-03-25T06:33:35.463Z,50.60
2019-03-25T06:34:38.734Z,50.60
2019-03-25T06:35:43.812Z,50.80
2019-03-25T06:36:47.108Z,50.90
2019-03-25T06:37:50.470Z,51.00
2019-03-25T06:38:54.045Z,51.10
2019-03-25T06:39:57.508Z,51.30
2019-03-25T06:41:00.982Z,51.30
2019-03-25T06:42:06.056Z,51.40
2019-03-25T06:43:09.333Z,51.50
2019-03-25T06:44:14.419Z,51.60
2019-03-25T06:45:17.667Z,51.60
2019-03-25T06:46:23.584Z,51.60
2019-03-25T06:47:26.823Z,51.70
2019-03-25T06:48:30.059Z,51.70
2019-03-25T06:49:33.387Z,51.70
2019-03-25T06:50:37.593Z,51.80
2019-03-25T06:51:40.902Z,52.00
2019-03-25T06:52:44.135Z,52.20
2019-03-25T06:53:47.475Z,52.10
2019-03-25T06:54:50.712Z,52.00
2019-03-25T06:55:53.963Z,52.20
2019-03-25T06:57:00.085Z,52.20
2019-03-25T06:58:03.372Z,52.30
2019-03-25T06:59:06.691Z,52.30
2019-03-25T07:00:11.245Z,52.30
2019-03-25T07:01:14.551Z,52.40
2019-03-25T07:02:17.889Z,52.50
2019-03-25T07:03:21.901Z,52.50
2019-03-25T07:04:25.233Z,52.50
2019-03-25T07:05:28.643Z,52.70
2019-03-25T07:06:31.903Z,52.90
2019-03-25T07:07:36.928Z,56.10
2019-03-25T07:08:40.534Z,52.60
2019-03-25T07:09:46.860Z,52.70
2019-03-25T07:10:50.165Z,53.00
2019-03-25T07:11:55.303Z,53.80
2019-03-25T07:12:59.175Z,54.70
2019-03-25T07:14:05.213Z,55.30
2019-03-25T07:15:09.531Z,55.60
2019-03-25T07:16:14.619Z,55.80
2019-03-25T07:17:17.876Z,55.90
2019-03-25T07:18:24.188Z,56.20
2019-03-25T07:19:27.517Z,56.20
2019-03-25T07:20:32.568Z,56.30
2019-03-25T07:21:35.888Z,56.30
2019-03-25T07:22:40.895Z,56.30
2019-03-25T07:23:44.498Z,56.90
2019-03-25T07:24:49.587Z,56.60
2019-03-25T07:25:52.820Z,56.50
2019-03-25T07:27:01.774Z,56.60
2019-03-25T07:28:05.435Z,56.60
2019-03-25T07:29:08.857Z,56.60
2019-03-25T07:30:12.289Z,56.40
2019-03-25T07:31:18.748Z,56.50
2019-03-25T07:32:22.339Z,56.50
2019-03-25T07:33:25.653Z,56.50
2019-03-25T07:34:29.035Z,56.50
2019-03-25T07:35:32.443Z,56.50
2019-03-25T07:36:37.527Z,56.60
2019-03-25T07:37:40.869Z,56.60
2019-03-25T07:38:44.505Z,56.70
2019-03-25T07:39:49.590Z,56.70
2019-03-25T07:40:52.887Z,56.80
2019-03-25T07:41:56.129Z,57.40
2019-03-25T07:43:01.198Z,56.80
2019-03-25T07:44:04.509Z,56.90
2019-03-25T07:45:08.014Z,56.80
2019-03-25T07:46:14.104Z,56.90
2019-03-25T07:47:17.480Z,56.80
2019-03-25T07:48:21.603Z,56.50
2019-03-25T07:49:24.848Z,56.80
2019-03-25T07:50:28.164Z,56.60
2019-03-25T07:51:31.495Z,56.90
2019-03-25T07:52:34.739Z,57.00
2019-03-25T07:53:38.611Z,56.80
2019-03-25T07:54:41.851Z,56.90
2019-03-25T07:55:45.207Z,56.90
2019-03-25T07:56:51.822Z,56.90
2019-03-25T07:57:55.183Z,56.90
2019-03-25T07:58:58.488Z,56.90
2019-03-25T08:00:13.147Z,56.90
2019-03-25T08:01:07.460Z,56.90
2019-03-25T08:02:15.247Z,56.80
2019-03-25T08:03:19.252Z,56.80
2019-03-25T08:04:22.895Z,56.90
2019-03-25T08:05:26.189Z,57.10
2019-03-25T08:06:29.520Z,57.00
2019-03-25T08:07:32.865Z,56.90
2019-03-25T08:08:36.538Z,57.00
2019-03-25T08:09:40.064Z,57.00
2019-03-25T08:10:46.707Z,57.00
2019-03-25T08:11:51.766Z,58.30
2019-03-25T08:12:55.128Z,56.90
2019-03-25T08:14:02.217Z,56.80
2019-03-25T08:15:06.163Z,56.80
2019-03-25T08:16:09.764Z,56.90
2019-03-25T08:17:13.564Z,56.80
2019-03-25T08:18:16.795Z,56.90
2019-03-25T08:19:20.100Z,58.20
2019-03-25T08:20:25.177Z,56.80
2019-03-25T08:21:28.448Z,58.20
2019-03-25T08:22:34.531Z,57.00
2019-03-25T08:23:37.808Z,57.00
2019-03-25T08:24:41.920Z,57.00
2019-03-25T08:25:46.023Z,57.10
2019-03-25T08:26:49.351Z,57.00
2019-03-25T08:27:59.835Z,57.00
2019-03-25T08:28:57.520Z,57.10
2019-03-25T08:30:03.568Z,57.20
2019-03-25T08:31:07.099Z,57.10
2019-03-25T08:32:12.098Z,57.10
2019-03-25T08:33:15.404Z,57.20
2019-03-25T08:34:21.662Z,57.20
2019-03-25T08:35:25.023Z,57.20
2019-03-25T08:36:28.351Z,57.20
2019-03-25T08:37:32.484Z,57.20
2019-03-25T08:38:38.526Z,57.30
2019-03-25T08:39:43.531Z,57.30
2019-03-25T08:40:48.040Z,57.30
2019-03-25T08:41:54.279Z,57.40
2019-03-25T08:42:57.583Z,57.30
2019-03-25T08:44:01.391Z,57.40
2019-03-25T08:45:05.103Z,57.40
2019-03-25T08:46:08.483Z,57.30
2019-03-25T08:47:11.716Z,57.30
2019-03-25T08:48:14.951Z,57.50
2019-03-25T08:49:18.571Z,57.00
2019-03-25T08:50:22.255Z,57.90
2019-03-25T08:51:25.567Z,57.90
2019-03-25T08:52:31.439Z,57.80
2019-03-25T08:53:35.247Z,59.00
2019-03-25T08:54:41.379Z,57.60
2019-03-25T08:55:44.640Z,57.90
2019-03-25T08:56:48.259Z,58.30
2019-03-25T08:57:51.519Z,58.00
2019-03-25T08:58:57.780Z,58.00
2019-03-25T09:00:01.203Z,58.10
2019-03-25T09:01:04.515Z,57.70
2019-03-25T09:02:07.823Z,58.00
2019-03-25T09:03:11.120Z,58.10
2019-03-25T09:04:14.383Z,58.20
2019-03-25T09:05:17.696Z,58.30
2019-03-25T09:06:21.054Z,58.10
2019-03-25T09:07:24.551Z,58.10
2019-03-25T09:08:29.580Z,58.10
2019-03-25T09:09:35.591Z,58.10
2019-03-25T09:10:39.403Z,58.20
2019-03-25T09:11:42.674Z,58.20
2019-03-25T09:12:45.947Z,58.10
2019-03-25T09:13:49.370Z,58.10
2019-03-25T09:14:54.578Z,58.00
2019-03-25T09:15:57.899Z,58.00
2019-03-25T09:17:01.135Z,57.90
2019-03-25T09:18:04.367Z,58.00
2019-03-25T09:19:07.632Z,57.90
2019-03-25T09:20:10.955Z,58.00
2019-03-25T09:21:14.302Z,57.90
2019-03-25T09:22:17.703Z,58.90
2019-03-25T09:23:20.959Z,57.60
2019-03-25T09:24:24.196Z,57.90
2019-03-25T09:25:27.443Z,57.70
2019-03-25T09:26:30.826Z,57.80
2019-03-25T09:27:34.254Z,57.80
2019-03-25T09:28:40.427Z,57.90
2019-03-25T09:29:43.680Z,58.00
2019-03-25T09:30:52.871Z,58.10
2019-03-25T09:31:59.095Z,58.00
2019-03-25T09:33:03.200Z,57.80
2019-03-25T09:34:07.223Z,58.10
2019-03-25T09:35:10.490Z,58.00
2019-03-25T09:36:14.368Z,57.20
2019-03-25T09:37:17.975Z,58.00
2019-03-25T09:38:21.281Z,58.20
2019-03-25T09:39:24.522Z,57.90
2019-03-25T09:40:27.827Z,58.10
2019-03-25T09:41:31.083Z,58.10
2019-03-25T09:42:34.391Z,58.20
2019-03-25T09:43:37.757Z,58.50
2019-03-25T09:44:41.368Z,58.20
2019-03-25T09:45:44.647Z,58.50
2019-03-25T09:46:50.812Z,58.50
2019-03-25T09:47:54.148Z,58.20
2019-03-25T09:48:57.551Z,58.50
2019-03-25T09:50:00.906Z,58.50
2019-03-25T09:51:04.447Z,58.50
2019-03-25T09:52:07.733Z,58.30
2019-03-25T09:53:11.025Z,58.50
2019-03-25T09:54:14.260Z,58.60
2019-03-25T09:55:20.223Z,58.50
2019-03-25T09:56:23.866Z,58.70
2019-03-25T09:57:27.101Z,58.70
2019-03-25T09:58:36.304Z,58.80
2019-03-25T09:59:35.288Z,58.50
2019-03-25T10:00:38.515Z,58.70
2019-03-25T10:01:43.532Z,58.50
2019-03-25T10:02:46.767Z,58.60
2019-03-25T10:03:51.417Z,58.80
2019-03-25T10:04:54.701Z,58.80
2019-03-25T10:05:58.111Z,58.80
2019-03-25T10:07:03.204Z,59.00
2019-03-25T10:08:06.816Z,58.60
2019-03-25T10:09:10.408Z,59.00
2019-03-25T10:10:14.005Z,58.70
2019-03-25T10:11:17.307Z,58.60
2019-03-25T10:12:20.578Z,59.10
2019-03-25T10:13:25.679Z,58.90
2019-03-25T10:14:29.004Z,58.90
2019-03-25T10:15:37.947Z,59.10
2019-03-25T10:16:41.261Z,58.30
2019-03-25T10:17:44.491Z,59.30
2019-03-25T10:18:47.757Z,59.00
2019-03-25T10:19:53.931Z,59.00
2019-03-25T10:20:57.247Z,58.80
2019-03-25T10:22:00.874Z,59.00
2019-03-25T10:23:04.205Z,58.70
2019-03-25T10:24:07.586Z,58.70
2019-03-25T10:25:11.331Z,58.90
2019-03-25T10:26:17.191Z,58.90
2019-03-25T10:27:21.463Z,58.70
2019-03-25T10:28:24.697Z,58.90
2019-03-25T10:29:27.987Z,58.60
2019-03-25T10:30:31.297Z,58.90
2019-03-25T10:31:34.649Z,58.80
2019-03-25T10:32:39.725Z,58.90
2019-03-25T10:33:42.963Z,58.80
2019-03-25T10:34:46.355Z,58.70
2019-03-25T10:35:49.599Z,58.60
2019-03-25T10:36:55.821Z,58.80
2019-03-25T10:37:59.167Z,59.00
2019-03-25T10:39:04.152Z,58.90
2019-03-25T10:40:07.471Z,59.00
2019-03-25T10:41:10.771Z,59.10
2019-03-25T10:42:14.015Z,58.80
2019-03-25T10:43:19.831Z,59.30
2019-03-25T10:44:23.347Z,59.10
2019-03-25T10:45:26.667Z,58.80
2019-03-25T10:46:29.947Z,59.00
2019-03-25T10:47:36.111Z,59.10
2019-03-25T10:48:39.712Z,59.00
2019-03-25T10:49:47.615Z,58.90
2019-03-25T10:50:50.939Z,58.50
2019-03-25T10:51:54.349Z,59.30
2019-03-25T10:52:57.749Z,59.10
2019-03-25T10:54:01.503Z,59.20
2019-03-25T10:55:07.564Z,59.10
2019-03-25T10:56:10.239Z,59.00
2019-03-25T10:57:13.588Z,58.90
2019-03-25T10:58:16.979Z,58.90
2019-03-25T10:59:21.167Z,58.90
2019-03-25T11:00:24.403Z,58.90
2019-03-25T11:01:27.657Z,58.80
2019-03-25T11:02:30.968Z,60.00
2019-03-25T11:03:34.278Z,58.90
2019-03-25T11:04:39.283Z,58.90
2019-03-25T11:05:42.744Z,58.90
2019-03-25T11:06:47.831Z,58.90
2019-03-25T11:07:51.166Z,58.90
2019-03-25T11:08:56.340Z,58.90
2019-03-25T11:09:59.623Z,58.90
2019-03-25T11:11:06.413Z,58.90
2019-03-25T11:12:09.959Z,59.20
2019-03-25T11:13:13.277Z,59.10
2019-03-25T11:14:16.568Z,60.20
2019-03-25T11:15:19.875Z,59.20
2019-03-25T11:16:23.460Z,59.30
2019-03-25T11:17:29.195Z,59.20
2019-03-25T11:18:32.536Z,59.30
2019-03-25T11:19:35.839Z,59.20
2019-03-25T11:20:39.115Z,59.30
2019-03-25T11:21:45.618Z,59.30
2019-03-25T11:22:48.964Z,59.30
2019-03-25T11:23:52.194Z,59.20
2019-03-25T11:24:55.443Z,59.30
2019-03-25T11:25:59.639Z,59.20
2019-03-25T11:27:02.964Z,59.30
2019-03-25T11:28:09.316Z,59.30
2019-03-25T11:29:12.647Z,59.30
2019-03-25T11:30:21.309Z,59.30
2019-03-25T11:31:24.899Z,59.30
2019-03-25T11:32:28.138Z,59.20
2019-03-25T11:33:37.140Z,59.20
2019-03-25T11:34:40.583Z,59.20
2019-03-25T11:35:44.392Z,59.30
2019-03-25T11:36:47.787Z,59.30
2019-03-25T11:37:51.943Z,59.40
2019-03-25T11:38:55.183Z,59.30
2019-03-25T11:39:58.491Z,59.40
2019-03-25T11:41:02.128Z,59.50
2019-03-25T11:42:05.539Z,59.50
2019-03-25T11:43:09.131Z,59.60
2019-03-25T11:44:13.191Z,59.30
2019-03-25T11:45:16.799Z,43.90
2019-03-25T11:46:20.107Z,48.20
2019-03-25T11:47:23.840Z,39.60
2019-03-25T11:48:27.391Z,48.30
2019-03-25T11:49:30.707Z,38.40
2019-03-25T11:50:37.385Z,39.70
2019-03-25T11:51:41.312Z,42.30
2019-03-25T11:52:45.016Z,43.80
2019-03-25T11:53:48.619Z,43.80
2019-03-25T11:54:54.811Z,41.90
2019-03-25T11:55:58.384Z,45.70
2019-03-25T11:57:01.956Z,39.70
2019-03-25T11:58:06.332Z,44.00
2019-03-25T11:59:18.286Z,40.60
2019-03-25T12:00:15.243Z,41.40
2019-03-25T12:01:18.752Z,43.20
2019-03-25T12:02:22.256Z,41.30
2019-03-25T12:03:25.760Z,40.20
2019-03-25T12:04:30.108Z,42.20
2019-03-25T12:05:33.611Z,40.00
2019-03-25T12:06:37.147Z,40.60
2019-03-25T12:07:43.677Z,39.00
2019-03-25T12:08:47.266Z,40.00
2019-03-25T12:09:50.771Z,41.20
2019-03-25T12:10:54.280Z,40.20
2019-03-25T12:11:57.779Z,41.20
2019-03-25T12:13:01.289Z,40.30
2019-03-25T12:14:06.716Z,46.00
2019-03-25T12:15:11.769Z,41.30
2019-03-25T12:16:15.343Z,44.50
2019-03-25T12:17:21.999Z,39.60
2019-03-25T12:18:25.525Z,39.70
2019-03-25T12:19:30.830Z,44.20
2019-03-25T12:20:34.399Z,42.70
2019-03-25T12:21:38.175Z,46.60
2019-03-25T12:22:44.499Z,46.20
2019-03-25T12:23:48.007Z,43.60
2019-03-25T12:24:54.574Z,40.80
2019-03-25T12:25:59.031Z,41.80
2019-03-25T12:27:02.604Z,43.90
2019-03-25T12:28:06.583Z,42.60
2019-03-25T12:29:10.096Z,41.80
2019-03-25T12:30:13.614Z,43.80
2019-03-25T12:31:17.187Z,42.60
2019-03-25T12:32:21.010Z,41.70
2019-03-25T12:33:24.654Z,42.20
2019-03-25T12:34:28.254Z,45.20
2019-03-25T12:35:31.858Z,40.70
2019-03-25T12:36:35.808Z,40.90
2019-03-25T12:37:45.113Z,41.60
2019-03-25T12:38:48.734Z,41.10
2019-03-25T12:39:52.359Z,43.10
2019-03-25T12:40:55.898Z,43.50
2019-03-25T12:42:02.488Z,46.10
2019-03-25T12:43:06.066Z,41.50
2019-03-25T12:44:09.646Z,41.40
2019-03-25T12:45:13.179Z,40.10
2019-03-25T12:46:16.688Z,41.50
2019-03-25T12:47:20.275Z,42.20
2019-03-25T12:48:24.421Z,43.10
2019-03-25T12:49:28.019Z,42.60
2019-03-25T12:50:31.795Z,42.80
2019-03-25T12:51:35.324Z,41.40
2019-03-25T12:52:41.705Z,43.40
2019-03-25T12:53:47.150Z,42.10
2019-03-25T12:54:50.677Z,42.60
2019-03-25T12:55:54.426Z,43.20
2019-03-25T12:56:57.975Z,41.10
2019-03-25T12:58:03.495Z,42.00
2019-03-25T12:59:07.004Z,47.90
2019-03-25T13:00:10.667Z,44.40
2019-03-25T13:01:14.175Z,41.70
2019-03-25T13:02:20.839Z,41.40
2019-03-25T13:03:24.530Z,41.90
2019-03-25T13:04:29.655Z,42.00
2019-03-25T13:05:33.355Z,43.90
2019-03-25T13:06:38.136Z,43.70
2019-03-25T13:07:41.638Z,43.00
2019-03-25T13:08:45.420Z,42.70
2019-03-25T13:09:49.055Z,41.10
2019-03-25T13:10:54.991Z,45.90
2019-03-25T13:11:58.487Z,43.40
2019-03-25T13:13:01.988Z,42.60
2019-03-25T13:14:05.529Z,42.70
2019-03-25T13:15:09.424Z,41.20
2019-03-25T13:16:13.002Z,41.20
2019-03-25T13:17:18.274Z,41.30
2019-03-25T13:18:21.823Z,43.80
2019-03-25T13:19:28.147Z,42.50
2019-03-25T13:20:32.573Z,41.00
2019-03-25T13:21:36.139Z,43.10
2019-03-25T13:22:40.572Z,42.00
2019-03-25T13:23:44.079Z,41.30
2019-03-25T13:24:47.654Z,42.20
2019-03-25T13:25:51.243Z,42.70
2019-03-25T13:26:54.819Z,44.20
2019-03-25T13:27:58.427Z,43.50
2019-03-25T13:29:03.775Z,42.80
2019-03-25T13:30:08.915Z,41.90
2019-03-25T13:31:14.183Z,43.60
2019-03-25T13:32:17.877Z,43.20
2019-03-25T13:33:23.158Z,45.90
2019-03-25T13:34:26.787Z,46.30
2019-03-25T13:35:30.640Z,47.40
2019-03-25T13:36:34.155Z,48.70
2019-03-25T13:37:40.472Z,49.30
2019-03-25T13:38:44.007Z,49.20
2019-03-25T13:39:50.412Z,50.90
2019-03-25T13:40:55.700Z,52.50
2019-03-25T13:41:59.201Z,54.10
2019-03-25T13:43:02.782Z,54.00